Time;durP1;ratioP1;P1;durP2;ratioP2;P2;SDS_P1;SDS_P2;PMS_P1;PMS_P2;Temp;Humidity;BMP_temperature;BMP_pressure;BME280_temperature;BME280_humidity;BME280_pressure;Samples;Min_cycle;Max_cycle;Signal;HPM_P1;HPM_P2
2022/10/08 00:00:57;;;;;;;;;;;;;;;9.50;50.30;100846.28;4869951;28;107437;-67
2022/10/08 00:03:30;;;;;;;;;;;;;;;9.53;50.43;100843.91;4870531;28;97953;-65
2022/10/08 00:06:05;;;;;;;;;;;;;;;9.56;50.38;100842.59;4863823;28;98061;-67
2022/10/08 00:08:33;;;;;;;;;;;;;;;9.59;50.21;100848.31;4907866;28;98284;-67
2022/10/08 00:11:06;;;;;;;;;;;;;;;9.61;50.12;100841.84;4863296;28;97934;-67
2022/10/08 00:13:41;;;;;;;;;;;;;;;9.62;50.34;100838.88;4877521;28;97861;-63
2022/10/08 00:16:13;;;;;;;;;;;;;;;9.63;50.46;100851.31;4861842;28;98352;-63
2022/10/08 00:18:43;;;;;;;;;;;;;;;9.64;50.66;100846.72;4857101;28;98119;-66
2022/10/08 00:21:17;;;;;;;;;;;;;;;9.61;50.37;100839.97;4870027;28;98108;-66
2022/10/08 00:23:47;;;;;;;;;;;;;;;9.60;50.36;100843.72;4895355;28;98414;-67
2022/10/08 00:26:14;;;;;;;;;;;;;;;9.57;50.45;100841.53;4876177;28;98205;-67
2022/10/08 00:28:42;;;;;;;;;;;;;;;9.55;49.97;100840.97;4858856;28;98246;-67
2022/10/08 00:31:10;;;;;;;;;;;;;;;9.52;50.48;100842.28;4883234;28;98238;-67
2022/10/08 00:33:36;;;;;;;;;;;;;;;9.50;50.66;100830.94;4877620;28;98210;-67
2022/10/08 00:36:07;;;;;;;;;;;;;;;9.49;50.73;100828.50;4885746;28;99838;-63
2022/10/08 00:38:34;;;;;;;;;;;;;;;9.49;50.59;100823.13;4897514;28;98075;-63
2022/10/08 00:41:00;;;;;;;;;;;;;;;9.46;50.47;100821.75;4882838;28;98167;-63
2022/10/08 00:43:52;;;;;;;;;;;;;;;9.46;50.54;100823.63;4870707;28;97853;-63
2022/10/08 00:46:38;;;;;;;;;;;;;;;9.43;50.68;100816.91;4868324;28;98071;-63
2022/10/08 00:49:12;;;;;;;;;;;;;;;9.42;50.22;100817.94;4879430;28;97961;-63
2022/10/08 00:51:43;;;;;;;;;;;;;;;9.41;50.50;100810.13;4898542;28;98087;-67
2022/10/08 00:54:09;;;;;;;;;;;;;;;9.38;50.97;100805.25;4881138;28;98554;-63
2022/10/08 00:56:36;;;;;;;;;;;;;;;9.37;50.90;100801.75;4881426;28;98033;-66
2022/10/08 00:59:04;;;;;;;;;;;;;;;9.35;50.09;100809.22;4890986;28;108448;-66
2022/10/08 01:01:30;;;;;;;;;;;;;;;9.32;49.96;100802.50;4875697;28;98143;-66
2022/10/08 01:03:57;;;;;;;;;;;;;;;9.31;50.69;100802.72;4890790;28;98896;-63
2022/10/08 01:06:37;;;;;;;;;;;;;;;9.29;50.56;100805.69;4896315;28;98208;-63
2022/10/08 01:09:16;;;;;;;;;;;;;;;9.26;50.94;100806.19;4860662;28;98393;-63
2022/10/08 01:11:45;;;;;;;;;;;;;;;9.26;50.84;100799.97;4883219;28;97835;-63
2022/10/08 01:14:34;;;;;;;;;;;;;;;9.25;50.85;100801.88;4909026;28;97898;-63
2022/10/08 01:17:19;;;;;;;;;;;;;;;9.23;50.73;100795.91;4874648;28;98323;-63
2022/10/08 01:20:06;;;;;;;;;;;;;;;9.23;50.47;100798.59;4885479;28;98386;-67
2022/10/08 01:22:53;;;;;;;;;;;;;;;9.23;50.19;100795.09;4869337;28;99904;-66
2022/10/08 01:25:39;;;;;;;;;;;;;;;9.21;50.42;100797.25;4862115;28;97978;-63
2022/10/08 01:28:18;;;;;;;;;;;;;;;9.18;50.21;100795.03;4872465;28;98000;-63
2022/10/08 01:30:58;;;;;;;;;;;;;;;9.18;50.46;100787.78;4864810;28;97842;-66
2022/10/08 01:33:35;;;;;;;;;;;;;;;9.19;50.28;100780.53;4887986;28;99169;-67
2022/10/08 01:36:04;;;;;;;;;;;;;;;9.19;50.52;100784.03;4886852;28;98042;-63
2022/10/08 01:38:32;;;;;;;;;;;;;;;9.22;50.70;100782.72;4879020;28;97961;-63
2022/10/08 01:40:59;;;;;;;;;;;;;;;9.23;50.59;100776.28;4877207;28;98231;-63
2022/10/08 01:43:29;;;;;;;;;;;;;;;9.25;50.01;100774.97;4880936;28;97974;-63
2022/10/08 01:45:59;;;;;;;;;;;;;;;9.26;50.41;100771.19;4892769;28;98125;-66
2022/10/08 01:48:32;;;;;;;;;;;;;;;9.29;50.80;100768.00;4889630;28;98282;-66
2022/10/08 01:51:16;;;;;;;;;;;;;;;9.31;50.71;100768.59;4872204;28;97989;-63
2022/10/08 01:53:44;;;;;;;;;;;;;;;9.33;50.71;100763.75;4847987;28;98273;-63
2022/10/08 01:56:13;;;;;;;;;;;;;;;9.36;50.33;100767.84;4846724;28;98066;-63
2022/10/08 01:59:01;;;;;;;;;;;;;;;9.38;50.74;100756.81;4867808;28;98052;-63
2022/10/08 02:01:29;;;;;;;;;;;;;;;9.38;50.20;100757.63;4836999;28;98173;-66
2022/10/08 02:06:42;;;;;;;;;;;;;;;9.37;50.20;100750.63;4877890;28;98111;-66
2022/10/08 02:09:09;;;;;;;;;;;;;;;9.35;50.48;100747.34;4865485;28;98046;-66
2022/10/08 02:11:36;;;;;;;;;;;;;;;9.36;50.18;100740.94;4861203;28;98065;-67
2022/10/08 02:14:04;;;;;;;;;;;;;;;9.36;50.22;100742.81;4863322;28;98659;-67
2022/10/08 02:16:30;;;;;;;;;;;;;;;9.35;50.26;100750.03;4878944;28;98047;-63
2022/10/08 02:19:11;;;;;;;;;;;;;;;9.36;50.63;100748.19;4885013;28;118817;-63
2022/10/08 02:21:38;;;;;;;;;;;;;;;9.33;50.41;100736.03;4861562;28;98238;-67
2022/10/08 02:24:10;;;;;;;;;;;;;;;9.34;50.09;100743.03;4864880;28;97839;-66
2022/10/08 02:26:39;;;;;;;;;;;;;;;9.33;50.57;100741.44;4870637;28;99428;-63
2022/10/08 02:29:14;;;;;;;;;;;;;;;9.33;50.71;100734.16;4862312;28;97899;-66
2022/10/08 02:31:48;;;;;;;;;;;;;;;9.34;50.60;100724.22;4876011;28;98023;-64
2022/10/08 02:34:15;;;;;;;;;;;;;;;9.34;50.51;100734.97;4867703;28;98727;-66
2022/10/08 02:36:46;;;;;;;;;;;;;;;9.34;50.84;100745.72;4890864;28;114338;-67
2022/10/08 02:39:12;;;;;;;;;;;;;;;9.35;50.81;100733.91;4850985;28;97836;-63
2022/10/08 02:41:52;;;;;;;;;;;;;;;9.37;50.51;100733.66;4865680;28;98262;-63
2022/10/08 02:44:25;;;;;;;;;;;;;;;9.37;50.31;100737.16;4850102;28;98026;-66
2022/10/08 02:46:53;;;;;;;;;;;;;;;9.37;50.79;100730.97;4874620;28;98614;-67
2022/10/08 02:49:30;;;;;;;;;;;;;;;9.37;50.34;100736.34;4869512;28;97944;-63
2022/10/08 02:52:00;;;;;;;;;;;;;;;9.38;50.27;100727.22;4846739;28;97853;-67
2022/10/08 02:54:28;;;;;;;;;;;;;;;9.41;50.18;100737.47;4858924;28;99666;-67
2022/10/08 02:57:04;;;;;;;;;;;;;;;9.41;50.25;100727.53;4879777;28;97830;-65
2022/10/08 02:59:32;;;;;;;;;;;;;;;9.43;50.29;100729.94;4873823;28;98016;-63
2022/10/08 03:02:01;;;;;;;;;;;;;;;9.42;50.42;100729.13;4872934;28;98388;-67
2022/10/08 03:04:35;;;;;;;;;;;;;;;9.43;50.34;100720.03;4867562;28;98509;-67
2022/10/08 03:07:01;;;;;;;;;;;;;;;9.46;50.58;100726.75;4865841;28;98015;-63
2022/10/08 03:09:30;;;;;;;;;;;;;;;9.47;50.23;100729.22;4859534;28;98145;-67
2022/10/08 03:11:56;;;;;;;;;;;;;;;9.47;50.70;100728.38;4847283;28;97944;-66
2022/10/08 03:14:22;;;;;;;;;;;;;;;9.48;50.30;100722.75;4859916;28;98015;-63
2022/10/08 03:16:48;;;;;;;;;;;;;;;9.49;50.22;100728.94;4879852;28;98353;-63
2022/10/08 03:19:15;;;;;;;;;;;;;;;9.50;50.55;100731.38;4877027;28;107996;-63
2022/10/08 03:21:42;;;;;;;;;;;;;;;9.51;50.51;100733.03;4859996;28;98317;-67
2022/10/08 03:24:09;;;;;;;;;;;;;;;9.52;50.24;100728.44;4884248;28;97995;-63
2022/10/08 03:26:35;;;;;;;;;;;;;;;9.54;50.55;100737.06;4866862;28;106318;-66
2022/10/08 03:29:02;;;;;;;;;;;;;;;9.54;50.02;100731.69;4866880;28;98366;-67
2022/10/08 03:31:30;;;;;;;;;;;;;;;9.52;50.90;100723.88;4860831;28;98114;-67
2022/10/08 03:33:56;;;;;;;;;;;;;;;9.53;51.05;100732.75;4868379;28;98279;-63
2022/10/08 03:36:24;;;;;;;;;;;;;;;9.52;50.41;100728.44;4871629;28;98071;-67
2022/10/08 03:38:52;;;;;;;;;;;;;;;9.52;50.42;100731.94;4879286;28;98808;-67
2022/10/08 03:41:18;;;;;;;;;;;;;;;9.54;50.36;100734.38;4882094;28;97903;-63
2022/10/08 03:43:45;;;;;;;;;;;;;;;9.53;50.31;100725.50;4867286;28;97849;-67
2022/10/08 03:46:12;;;;;;;;;;;;;;;9.55;50.59;100727.94;4865469;28;97966;-67
2022/10/08 03:48:39;;;;;;;;;;;;;;;9.54;50.50;100719.03;4885278;28;97910;-67
2022/10/08 03:51:15;;;;;;;;;;;;;;;9.54;50.67;100729.81;4865798;28;100006;-67
2022/10/08 03:53:41;;;;;;;;;;;;;;;9.52;50.37;100729.25;4865800;28;98114;-63
2022/10/08 03:56:13;;;;;;;;;;;;;;;9.52;50.66;100725.75;4870164;28;99525;-67
2022/10/08 03:58:40;;;;;;;;;;;;;;;9.52;50.70;100731.13;4897854;28;98052;-66
2022/10/08 04:01:11;;;;;;;;;;;;;;;9.50;50.21;100725.19;4871515;28;98145;-63
2022/10/08 04:03:39;;;;;;;;;;;;;;;9.49;50.62;100726.25;4870953;28;98648;-67
2022/10/08 04:06:05;;;;;;;;;;;;;;;9.49;50.55;100728.94;4867735;28;98727;-63
2022/10/08 04:08:32;;;;;;;;;;;;;;;9.48;50.20;100738.91;4889926;28;98073;-64
2022/10/08 04:11:04;;;;;;;;;;;;;;;9.49;50.69;100734.34;4880424;28;98578;-66
2022/10/08 04:13:31;;;;;;;;;;;;;;;9.48;50.68;100732.72;4872123;28;98118;-66
2022/10/08 04:16:04;;;;;;;;;;;;;;;9.47;50.89;100736.44;4875100;28;98343;-66
2022/10/08 04:18:30;;;;;;;;;;;;;;;9.48;50.90;100744.28;4863469;28;98235;-63
2022/10/08 04:21:05;;;;;;;;;;;;;;;9.47;50.88;100736.44;4875435;28;106183;-63
2022/10/08 04:23:33;;;;;;;;;;;;;;;9.47;50.46;100737.28;4867432;28;97946;-67
2022/10/08 04:26:01;;;;;;;;;;;;;;;9.47;50.96;100739.13;4867277;28;98184;-67
2022/10/08 04:28:27;;;;;;;;;;;;;;;9.46;50.89;100741.03;4867346;28;98219;-67
2022/10/08 04:30:57;;;;;;;;;;;;;;;9.45;50.81;100738.59;4867986;28;99933;-63
2022/10/08 04:33:24;;;;;;;;;;;;;;;9.46;51.06;100737.53;4878360;28;99473;-67
2022/10/08 04:35:50;;;;;;;;;;;;;;;9.45;51.01;100743.97;4865157;28;98026;-63
2022/10/08 04:38:16;;;;;;;;;;;;;;;9.44;50.99;100745.06;4867600;28;97990;-63
2022/10/08 04:40:42;;;;;;;;;;;;;;;9.42;50.85;100749.84;4867332;28;98194;-67
2022/10/08 04:43:10;;;;;;;;;;;;;;;9.41;50.66;100737.47;4867819;28;98111;-66
2022/10/08 04:45:44;;;;;;;;;;;;;;;9.39;50.79;100737.72;4867203;28;99512;-67
2022/10/08 04:48:11;;;;;;;;;;;;;;;9.39;50.46;100734.22;4876762;28;98408;-66
2022/10/08 04:50:38;;;;;;;;;;;;;;;9.40;51.00;100736.66;4882072;28;98167;-67
2022/10/08 04:53:05;;;;;;;;;;;;;;;9.40;51.19;100741.25;4874100;28;97955;-67
2022/10/08 04:55:31;;;;;;;;;;;;;;;9.39;51.02;100745.78;4864140;28;98382;-67
2022/10/08 04:57:57;;;;;;;;;;;;;;;9.39;50.43;100751.16;4884927;28;109378;-67
2022/10/08 05:00:23;;;;;;;;;;;;;;;9.40;50.60;100755.50;4884256;28;98790;-67
2022/10/08 05:02:50;;;;;;;;;;;;;;;9.41;50.96;100742.84;4873109;28;99839;-67
2022/10/08 05:05:16;;;;;;;;;;;;;;;9.42;51.23;100747.97;4866368;28;98051;-67
2022/10/08 05:07:42;;;;;;;;;;;;;;;9.46;50.86;100751.78;4872604;28;114907;-67
2022/10/08 05:10:08;;;;;;;;;;;;;;;9.49;51.07;100745.09;4894768;28;98674;-67
2022/10/08 05:12:34;;;;;;;;;;;;;;;9.52;50.99;100740.03;4897025;28;97896;-67
2022/10/08 05:15:00;;;;;;;;;;;;;;;9.55;50.80;100736.03;4878625;28;127154;-67
2022/10/08 05:17:27;;;;;;;;;;;;;;;9.56;50.73;100737.63;4867309;28;98695;-67
2022/10/08 05:19:55;;;;;;;;;;;;;;;9.59;51.16;100746.03;4869314;28;98353;-67
2022/10/08 05:22:20;;;;;;;;;;;;;;;9.63;50.51;100749.03;4898335;28;98906;-67
2022/10/08 05:24:48;;;;;;;;;;;;;;;9.66;50.30;100748.50;4883665;28;99967;-67
2022/10/08 05:27:15;;;;;;;;;;;;;;;9.71;50.97;100753.94;4867074;28;98057;-67
2022/10/08 05:29:41;;;;;;;;;;;;;;;9.74;50.24;100749.91;4882294;28;98511;-67
2022/10/08 05:32:07;;;;;;;;;;;;;;;9.76;50.42;100750.47;4901092;28;122553;-67
2022/10/08 05:34:34;;;;;;;;;;;;;;;9.82;50.72;100749.44;4901004;28;98356;-67
2022/10/08 05:36:59;;;;;;;;;;;;;;;9.89;50.94;100751.94;4895216;28;98069;-67
2022/10/08 05:39:27;;;;;;;;;;;;;;;9.94;50.99;100749.28;4870951;28;98075;-67
2022/10/08 05:41:53;;;;;;;;;;;;;;;10.00;50.65;100750.97;4883409;28;100173;-67
2022/10/08 05:44:19;;;;;;;;;;;;;;;10.06;50.70;100748.06;4876239;28;99412;-67
2022/10/08 05:46:47;;;;;;;;;;;;;;;10.16;50.71;100741.94;4863584;28;97998;-67
2022/10/08 05:49:18;;;;;;;;;;;;;;;10.27;50.63;100746.38;4873055;28;98051;-67
2022/10/08 05:51:47;;;;;;;;;;;;;;;10.40;49.83;100741.59;4873987;28;99541;-67
2022/10/08 05:54:14;;;;;;;;;;;;;;;10.52;50.02;100747.59;4880013;28;98045;-67
2022/10/08 05:56:40;;;;;;;;;;;;;;;10.63;50.11;100749.28;4864474;28;98045;-67
2022/10/08 05:59:06;;;;;;;;;;;;;;;10.70;50.11;100757.97;4882356;28;98369;-67
2022/10/08 06:01:33;;;;;;;;;;;;;;;10.79;49.85;100753.69;4899883;28;98396;-67
2022/10/08 06:04:04;;;;;;;;;;;;;;;10.85;49.73;100756.44;4871622;28;98564;-67
2022/10/08 06:06:33;;;;;;;;;;;;;;;10.87;50.16;100756.97;4900224;28;98359;-67
2022/10/08 06:09:00;;;;;;;;;;;;;;;10.90;49.85;100761.84;4867348;28;98143;-67
2022/10/08 06:11:27;;;;;;;;;;;;;;;10.91;49.94;100766.16;4883235;28;98636;-67
2022/10/08 06:13:55;;;;;;;;;;;;;;;10.92;50.29;100778.56;4890960;28;98722;-67
2022/10/08 06:16:22;;;;;;;;;;;;;;;10.94;50.06;100782.63;4878368;28;98122;-67
2022/10/08 06:18:48;;;;;;;;;;;;;;;10.99;50.10;100777.25;4869683;28;98026;-67
2022/10/08 06:21:16;;;;;;;;;;;;;;;11.06;50.29;100779.72;4891176;28;97844;-67
2022/10/08 06:23:50;;;;;;;;;;;;;;;11.17;50.00;100786.81;4872844;28;98096;-67
2022/10/08 06:26:17;;;;;;;;;;;;;;;11.28;50.04;100777.69;4897733;28;98461;-63
2022/10/08 06:28:44;;;;;;;;;;;;;;;11.41;49.79;100791.75;4882937;28;98302;-63
2022/10/08 06:31:10;;;;;;;;;;;;;;;11.49;50.10;100783.94;4870447;28;97833;-63
2022/10/08 06:33:36;;;;;;;;;;;;;;;11.59;50.15;100783.16;4890257;28;98611;-63
2022/10/08 06:36:03;;;;;;;;;;;;;;;11.67;49.99;100788.06;4884948;28;99375;-63
2022/10/08 06:38:29;;;;;;;;;;;;;;;11.76;49.94;100791.03;4874645;28;98047;-63
2022/10/08 06:40:59;;;;;;;;;;;;;;;11.88;49.98;100798.94;4876708;28;127542;-63
2022/10/08 06:43:25;;;;;;;;;;;;;;;11.99;49.90;100793.28;4876415;28;105677;-63
2022/10/08 06:45:52;;;;;;;;;;;;;;;12.11;49.95;100797.59;4877784;28;98392;-63
2022/10/08 06:48:22;;;;;;;;;;;;;;;12.20;49.69;100796.78;4899615;28;98384;-63
2022/10/08 06:50:48;;;;;;;;;;;;;;;12.38;49.68;100789.19;4890940;28;98743;-63
2022/10/08 06:53:14;;;;;;;;;;;;;;;12.58;49.63;100793.81;4871181;28;99428;-63
2022/10/08 06:55:40;;;;;;;;;;;;;;;12.64;49.78;100796.22;4863157;28;98767;-63
2022/10/08 06:58:07;;;;;;;;;;;;;;;12.69;49.78;100806.22;4874548;28;98286;-63
2022/10/08 07:00:33;;;;;;;;;;;;;;;12.72;49.81;100802.97;4859421;28;97980;-67
2022/10/08 07:03:00;;;;;;;;;;;;;;;12.73;50.02;100807.28;4874212;28;97801;-67
2022/10/08 07:05:26;;;;;;;;;;;;;;;12.78;49.97;100810.00;4897076;28;98065;-67
2022/10/08 07:07:53;;;;;;;;;;;;;;;12.88;50.20;100806.44;4877320;28;98386;-67
2022/10/08 07:10:19;;;;;;;;;;;;;;;12.94;50.05;100808.88;4866591;28;98213;-67
2022/10/08 07:12:47;;;;;;;;;;;;;;;13.02;50.03;100815.63;4869483;28;99464;-67
2022/10/08 07:15:13;;;;;;;;;;;;;;;13.12;49.85;100822.88;4871553;28;98584;-67
2022/10/08 07:17:42;;;;;;;;;;;;;;;13.18;49.92;100819.09;4855882;28;97805;-67
2022/10/08 07:20:08;;;;;;;;;;;;;;;13.20;49.96;100825.84;4876219;28;98336;-67
2022/10/08 07:22:36;;;;;;;;;;;;;;;13.20;49.93;100820.44;4872298;28;99392;-67
2022/10/08 07:25:02;;;;;;;;;;;;;;;13.21;50.02;100818.53;4879659;28;99228;-67
2022/10/08 07:27:28;;;;;;;;;;;;;;;13.25;50.01;100819.66;4877690;28;98291;-67
2022/10/08 07:29:54;;;;;;;;;;;;;;;13.29;50.19;100826.13;4882650;28;105835;-67
2022/10/08 07:32:21;;;;;;;;;;;;;;;13.34;50.34;100823.38;4875995;28;98004;-67
2022/10/08 07:34:47;;;;;;;;;;;;;;;13.37;49.86;100830.16;4868510;28;98155;-67
2022/10/08 07:37:14;;;;;;;;;;;;;;;13.41;49.94;100815.78;4876518;28;97994;-67
2022/10/08 07:39:43;;;;;;;;;;;;;;;13.48;49.98;100823.63;4879401;28;98266;-67
2022/10/08 07:42:10;;;;;;;;;;;;;;;13.54;50.28;100822.47;4893814;28;97919;-67
2022/10/08 07:44:36;;;;;;;;;;;;;;;13.61;49.91;100814.06;4859192;28;98092;-63
2022/10/08 07:47:02;;;;;;;;;;;;;;;13.71;50.17;100817.50;4863854;28;99649;-63
2022/10/08 07:49:28;;;;;;;;;;;;;;;13.82;50.03;100820.16;4864851;28;119663;-63
2022/10/08 07:51:55;;;;;;;;;;;;;;;13.92;50.03;100829.06;4879602;28;102721;-63
2022/10/08 07:54:22;;;;;;;;;;;;;;;14.03;49.94;100831.69;4869002;28;98567;-66
2022/10/08 07:56:48;;;;;;;;;;;;;;;14.12;49.86;100840.84;4873541;28;98622;-67
2022/10/08 07:59:14;;;;;;;;;;;;;;;14.25;49.63;100842.91;4873548;28;98355;-67
2022/10/08 08:01:41;;;;;;;;;;;;;;;14.32;49.60;100834.47;4869790;28;98210;-67
2022/10/08 08:04:08;;;;;;;;;;;;;;;14.32;49.83;100843.41;4877824;28;98248;-67
2022/10/08 08:06:40;;;;;;;;;;;;;;;14.33;49.64;100850.44;4863589;28;98248;-63
2022/10/08 08:09:07;;;;;;;;;;;;;;;14.33;49.56;100842.31;4890058;28;98444;-67
2022/10/08 08:11:33;;;;;;;;;;;;;;;14.36;49.70;100838.22;4858463;28;102395;-63
2022/10/08 08:13:59;;;;;;;;;;;;;;;14.38;49.99;100844.16;4861244;28;98310;-63
2022/10/08 08:16:26;;;;;;;;;;;;;;;14.39;49.93;100853.94;4870052;28;101199;-67
2022/10/08 08:18:58;;;;;;;;;;;;;;;14.44;49.59;100854.69;4867494;28;98541;-67
2022/10/08 08:21:31;;;;;;;;;;;;;;;14.49;49.77;100859.31;4871403;28;99327;-63
2022/10/08 08:24:01;;;;;;;;;;;;;;;14.56;49.88;100864.41;4872997;28;98347;-67
2022/10/08 08:26:34;;;;;;;;;;;;;;;14.61;49.54;100850.78;4857232;28;111087;-67
2022/10/08 08:29:11;;;;;;;;;;;;;;;14.70;49.37;100855.34;4878056;28;98327;-66
2022/10/08 08:31:45;;;;;;;;;;;;;;;14.86;49.40;100861.44;4861484;28;99150;-67
2022/10/08 08:34:19;;;;;;;;;;;;;;;15.00;49.45;100853.41;4864576;28;98158;-67
2022/10/08 08:36:47;;;;;;;;;;;;;;;15.13;49.22;100849.19;4859288;28;99840;-62
2022/10/08 08:39:20;;;;;;;;;;;;;;;15.25;49.09;100851.50;4860792;28;97904;-62
2022/10/08 08:42:11;;;;;;;;;;;;;;;15.40;49.05;100851.31;4854222;28;98171;-67
2022/10/08 08:44:40;;;;;;;;;;;;;;;15.64;48.77;100851.28;4885883;28;98393;-67
2022/10/08 08:47:15;;;;;;;;;;;;;;;15.90;48.58;100843.66;4867792;28;101045;-63
2022/10/08 08:50:03;;;;;;;;;;;;;;;15.99;48.50;100850.03;4905628;28;98007;-66
2022/10/08 08:52:32;;;;;;;;;;;;;;;16.09;48.52;100851.81;4877168;28;98030;-67
2022/10/08 08:54:59;;;;;;;;;;;;;;;16.23;48.52;100854.56;4883535;28;97994;-67
2022/10/08 08:57:41;;;;;;;;;;;;;;;16.32;48.58;100861.78;4865580;28;98360;-67
2022/10/08 09:00:19;;;;;;;;;;;;;;;16.52;48.45;100862.56;4869275;28;98093;-64
2022/10/08 09:02:59;;;;;;;;;;;;;;;16.64;48.22;100865.63;4869980;28;98352;-67
2022/10/08 09:05:27;;;;;;;;;;;;;;;16.87;47.76;100875.59;4890995;28;98432;-63
2022/10/08 09:07:56;;;;;;;;;;;;;;;17.82;46.80;100881.38;4878834;28;98255;-67
2022/10/08 09:10:53;;;;;;;;;;;;;;;19.21;44.99;100871.44;4873513;28;98173;-64
2022/10/08 09:13:48;;;;;;;;;;;;;;;21.64;42.44;100874.03;4891021;28;98026;-68
2022/10/08 09:16:16;;;;;;;;;;;;;;;23.10;41.50;100886.03;4864736;28;98653;-68
2022/10/08 09:18:50;;;;;;;;;;;;;;;24.48;40.34;100886.81;4902031;28;98143;-65
2022/10/08 09:21:17;;;;;;;;;;;;;;;25.32;40.23;100890.56;4872446;28;100035;-65
2022/10/08 09:23:43;;;;;;;;;;;;;;;26.00;40.18;100892.13;4853045;28;99451;-68
2022/10/08 09:26:19;;;;;;;;;;;;;;;26.94;39.43;100896.38;4862311;28;98174;-68
2022/10/08 09:29:08;;;;;;;;;;;;;;;26.76;40.15;100890.50;4881014;28;98016;-68
2022/10/08 09:31:39;;;;;;;;;;;;;;;25.71;41.93;100888.72;4884085;28;98345;-68
2022/10/08 09:34:16;;;;;;;;;;;;;;;26.02;41.31;100895.34;4897715;28;99253;-68
2022/10/08 09:37:04;;;;;;;;;;;;;;;26.81;40.35;100881.16;4903061;28;98359;-65
2022/10/08 09:39:31;;;;;;;;;;;;;;;26.41;41.20;100894.19;4900906;28;99135;-65
2022/10/08 09:42:06;;;;;;;;;;;;;;;26.67;41.30;100890.75;4880925;28;98216;-65
2022/10/08 09:44:57;;;;;;;;;;;;;;;27.92;39.50;100889.25;4906238;28;98109;-65
2022/10/08 09:47:25;;;;;;;;;;;;;;;27.68;40.22;100898.78;4872997;28;98920;-68
2022/10/08 09:50:06;;;;;;;;;;;;;;;27.62;40.66;100892.75;4895663;28;98085;-68
2022/10/08 09:52:34;;;;;;;;;;;;;;;27.75;40.73;100890.63;4878164;28;98594;-65
2022/10/08 09:55:06;;;;;;;;;;;;;;;27.81;41.00;100888.31;4887333;28;97979;-68
2022/10/08 09:57:32;;;;;;;;;;;;;;;27.70;41.37;100885.34;4890808;28;98103;-65
2022/10/08 10:00:02;;;;;;;;;;;;;;;27.25;42.23;100878.75;4888141;28;100212;-68
2022/10/08 10:02:39;;;;;;;;;;;;;;;26.58;42.88;100879.16;4873946;28;98133;-65
2022/10/08 10:05:20;;;;;;;;;;;;;;;26.05;43.33;100886.31;4889213;28;98630;-68
2022/10/08 10:07:46;;;;;;;;;;;;;;;25.76;43.54;100879.34;4893791;28;98398;-68
2022/10/08 10:10:31;;;;;;;;;;;;;;;25.56;43.84;100882.06;4887207;28;99317;-69
2022/10/08 10:13:18;;;;;;;;;;;;;;;25.28;44.11;100882.19;4874919;28;98119;-69
2022/10/08 10:16:02;;;;;;;;;;;;;;;24.94;44.24;100881.72;4913119;28;98668;-69
2022/10/08 10:18:44;;;;;;;;;;;;;;;24.61;44.74;100886.75;4879232;28;98423;-68
2022/10/08 10:21:15;;;;;;;;;;;;;;;24.21;45.04;100887.56;4893770;28;98788;-68
2022/10/08 10:23:59;;;;;;;;;;;;;;;24.03;45.14;100889.78;4861181;28;99350;-69
2022/10/08 10:26:29;;;;;;;;;;;;;;;24.15;44.90;100889.75;4888415;28;99561;-64
2022/10/08 10:29:16;;;;;;;;;;;;;;;24.16;44.64;100885.84;4867693;28;98610;-64
2022/10/08 10:31:55;;;;;;;;;;;;;;;24.12;44.99;100890.44;4873942;28;99221;-68
2022/10/08 10:34:24;;;;;;;;;;;;;;;24.00;44.87;100888.53;4889115;28;98028;-68
2022/10/08 10:36:53;;;;;;;;;;;;;;;23.92;44.96;100883.16;4898878;28;101630;-69
2022/10/08 10:39:37;;;;;;;;;;;;;;;23.79;45.12;100876.88;4876794;28;97929;-69
2022/10/08 10:42:30;;;;;;;;;;;;;;;23.64;45.33;100867.34;4910988;28;99817;-68
2022/10/08 10:45:24;;;;;;;;;;;;;;;23.59;45.39;100869.56;4891625;28;98249;-68
2022/10/08 10:47:54;;;;;;;;;;;;;;;23.71;45.04;100878.63;4872659;28;99139;-69
2022/10/08 10:50:35;;;;;;;;;;;;;;;23.95;44.77;100876.97;4868263;28;98532;-64
2022/10/08 10:53:21;;;;;;;;;;;;;;;24.28;44.38;100876.72;4878104;28;98200;-64
2022/10/08 10:56:04;;;;;;;;;;;;;;;23.94;44.80;100875.38;4864174;28;97908;-68
2022/10/08 10:58:58;;;;;;;;;;;;;;;23.55;45.20;100869.44;4879818;28;98467;-68
2022/10/08 11:02:02;;;;;;;;;;;;;;;23.19;45.53;100873.00;4879659;28;98076;-68
2022/10/08 11:04:59;;;;;;;;;;;;;;;22.89;45.69;100870.41;4911369;28;99330;-65
2022/10/08 11:07:42;;;;;;;;;;;;;;;22.62;46.23;100880.06;4897914;28;98063;-68
2022/10/08 11:10:28;;;;;;;;;;;;;;;22.66;46.01;100871.94;4886874;28;98109;-65
2022/10/08 11:13:10;;;;;;;;;;;;;;;22.85;45.57;100868.69;4884385;28;97973;-68
2022/10/08 11:15:41;;;;;;;;;;;;;;;23.35;44.89;100871.16;4890078;28;98437;-69
2022/10/08 11:18:35;;;;;;;;;;;;;;;23.30;45.09;100867.81;4886316;28;98426;-69
2022/10/08 11:21:26;;;;;;;;;;;;;;;22.94;45.61;100864.69;4871480;28;98001;-66
2022/10/08 11:24:01;;;;;;;;;;;;;;;22.89;45.17;100864.91;4894055;28;98193;-68
2022/10/08 11:26:27;;;;;;;;;;;;;;;22.79;45.60;100862.56;4910961;28;98681;-68
2022/10/08 11:29:18;;;;;;;;;;;;;;;22.72;45.75;100867.84;4912436;28;98505;-69
2022/10/08 11:31:45;;;;;;;;;;;;;;;22.70;45.39;100870.91;4912021;28;98505;-65
2022/10/08 11:34:22;;;;;;;;;;;;;;;22.43;46.01;100871.53;4850441;28;98337;-68
2022/10/08 11:37:12;;;;;;;;;;;;;;;22.49;45.83;100872.94;4873012;28;98118;-65
2022/10/08 11:39:41;;;;;;;;;;;;;;;23.57;44.22;100874.59;4905759;28;99305;-65
2022/10/08 11:42:24;;;;;;;;;;;;;;;24.12;43.46;100871.16;4906692;28;98072;-65
2022/10/08 11:44:50;;;;;;;;;;;;;;;24.15;43.62;100861.41;4875766;28;97945;-65
2022/10/08 11:47:41;;;;;;;;;;;;;;;24.19;44.00;100856.81;4875013;28;98517;-68
2022/10/08 11:50:35;;;;;;;;;;;;;;;24.04;44.10;100854.78;4886363;28;99968;-69
2022/10/08 11:53:13;;;;;;;;;;;;;;;23.87;44.44;100856.69;4891660;28;98069;-65
2022/10/08 11:56:09;;;;;;;;;;;;;;;23.40;45.48;100867.38;4849460;28;98196;-69
2022/10/08 11:58:38;;;;;;;;;;;;;;;22.78;46.24;100861.78;4888554;28;98386;-69
2022/10/08 12:01:08;;;;;;;;;;;;;;;23.08;45.24;100858.09;4860574;28;98308;-69
2022/10/08 12:03:39;;;;;;;;;;;;;;;23.02;45.60;100852.00;4856881;28;99182;-69
2022/10/08 12:06:23;;;;;;;;;;;;;;;22.91;45.38;100850.84;4853912;28;98738;-69
2022/10/08 12:08:51;;;;;;;;;;;;;;;22.32;46.38;100862.88;4875501;28;97965;-65
2022/10/08 12:11:38;;;;;;;;;;;;;;;22.38;46.15;100866.25;4913288;28;98297;-65
2022/10/08 12:14:14;;;;;;;;;;;;;;;22.50;45.88;100856.09;4895953;28;97769;-65
2022/10/08 12:17:05;;;;;;;;;;;;;;;22.62;45.54;100852.59;4911793;28;97986;-65
2022/10/08 12:19:37;;;;;;;;;;;;;;;22.38;45.73;100852.50;4916095;28;98246;-65
2022/10/08 12:22:16;;;;;;;;;;;;;;;22.50;45.27;100853.34;4909964;28;99362;-64
2022/10/08 12:24:45;;;;;;;;;;;;;;;22.22;45.71;100858.63;4892227;28;98705;-68
2022/10/08 12:27:17;;;;;;;;;;;;;;;22.37;45.63;100861.91;4912334;28;98844;-66
2022/10/08 12:30:02;;;;;;;;;;;;;;;22.32;45.64;100851.09;4911944;28;98692;-69
2022/10/08 12:32:29;;;;;;;;;;;;;;;22.03;46.09;100863.75;4896773;28;98013;-65
2022/10/08 12:34:57;;;;;;;;;;;;;;;21.84;46.30;100861.47;4876588;28;97929;-69
2022/10/08 12:37:49;;;;;;;;;;;;;;;21.70;46.42;100856.25;4882671;28;98390;-66
2022/10/08 12:40:39;;;;;;;;;;;;;;;21.54;46.46;100861.53;4879116;28;98149;-69
2022/10/08 12:43:21;;;;;;;;;;;;;;;21.26;46.79;100865.81;4879959;28;98105;-69
2022/10/08 12:46:01;;;;;;;;;;;;;;;20.98;47.06;100868.19;4875561;28;98276;-69
2022/10/08 12:48:56;;;;;;;;;;;;;;;20.86;47.08;100857.91;4878998;28;97906;-69
2022/10/08 12:51:48;;;;;;;;;;;;;;;21.33;46.26;100853.22;4862207;28;98201;-69
2022/10/08 12:54:23;;;;;;;;;;;;;;;21.29;46.22;100859.69;4878839;28;98345;-70
2022/10/08 12:56:50;;;;;;;;;;;;;;;21.26;46.38;100860.31;4912900;28;98121;-69
2022/10/08 12:59:21;;;;;;;;;;;;;;;21.11;46.50;100858.97;4900481;28;98218;-70
2022/10/08 13:01:48;;;;;;;;;;;;;;;20.99;46.71;100867.06;4862499;28;97965;-69
2022/10/08 13:04:24;;;;;;;;;;;;;;;20.99;46.55;100869.81;4868385;28;98335;-69
2022/10/08 13:06:51;;;;;;;;;;;;;;;21.08;46.32;100860.41;4863042;28;97950;-69
2022/10/08 13:09:31;;;;;;;;;;;;;;;20.93;46.45;100862.88;4863384;28;103449;-69